LFSO

Nancy-Ochey (BA 133) Air Base Airport

Nancy/Ochey, France
TAF AMD LFSO 240445Z 2404/2503 24008KT 9999 OVC006 TEMPO 2406/2412 6000 OVC004 TEMPO 2412/2418 OVC010 BECMG 2420/2422 3000 BR OVC002
Issued Valid From Valid To
Oct-24 @ 04:45 UTC
(18 minutes ago)
Oct-24 @ 04:00 UTC
(an hour ago)
Oct-25 @ 03:00 UTC
(in 22 hours)
Oct-24 @ 04:00 to Oct-24 @ 20:00
TAF AMD LFSO 240445Z 2404/2503 24008KT 9999 OVC006
Wind Visibility Clouds
240° at 8 knots 10,000+ meters
  • Overcast at 600' AGL
Temporary Oct-24 @ 06:00 to Oct-24 @ 12:00
TEMPO 2406/2412 6000 OVC004
Visibility Clouds
6,003 meters
  • Overcast at 400' AGL
Temporary Oct-24 @ 12:00 to Oct-24 @ 18:00
TEMPO 2412/2418 OVC010
Clouds
  • Overcast at 1,000' AGL
Becoming Oct-24 @ 20:00 to Oct-25 @ 03:00
BECMG 2420/2422 3000 BR OVC002
Wind Visibility Clouds Conditions
240° at 8 knots 2,993 meters
  • Overcast at 200' AGL
  • Mist
TAF AMD LFSO 240445Z 2404/2503 24008KT 9999 OVC006 TEMPO 2406/2412 6000 OVC004 TEMPO 2412/2418 OVC010 BECMG 2420/2422 3000 BR OVC002
Issued Oct-24 @ 04:45 UTC
(18 minutes ago)
Valid From Oct-24 @ 04:00 UTC
(an hour ago)
Valid To Oct-25 @ 03:00 UTC
(in 22 hours)
Oct-24 @ 04:00 - Oct-24 @ 20:00
Wind Visibility
240° at 8 knots 10,000+ meters
Clouds
  • Overcast at 600' AGL
Temporary Oct-24 @ 06:00 - Oct-24 @ 12:00
Clouds
  • Overcast at 400' AGL
Temporary Oct-24 @ 12:00 - Oct-24 @ 18:00
Clouds
  • Overcast at 1,000' AGL
Becoming Oct-24 @ 20:00 - Oct-25 @ 03:00
Wind Visibility
240° at 8 knots 2,993 meters
Clouds
  • Overcast at 200' AGL
Conditions
  • Mist